map of PNR home
PNR - Airport
Location
City:  Pointe Noire, Kouilou, Congo (Republic of)
ICAO:FCPP
IATA:PNR

Details
Type:Airport (Aerodrome, Airfield)
Use:Public/Civil, International (customs port of entry)
Latitude:448'53"S (-4.814721)
Longitude:1153'11"E (11.886389)
Elevation:56 ft (17 m)
Variation:2.42W (WMM2015 magnetic declination)
0.16 annual change
Runways:1
Longest:8596 × 148 ft (2620 × 45 m), paved

Time
Time Zone:UTC+1
Local Time:

Weather
METAR:FCPP 210500Z 16005KT 8000 SCT008 OVC021 24/23 Q1010 TEMPO BKN008 OVC020
TAF:FCPP 210500Z 2106/2206 19008KT 8000 SCT010 BKN023= TAF LGIR 210500Z 2106/2206 33010KT 9999 FEW018 SCT025

Related Locations
Nearby:
Farthest:PLPA: 12027 mi / 19356 km
Palmyra Island Atoll [Palmyra Airport (Cooper)], UM

Find:

   beyond  
but within

Other Information
Maps:
NOTAMs:
Links:
Sources:

  
  • flag of Congo (Republic of)
  

Sectional Chart

Flight Planning
at skyvector.com

Satellite Image

Google Maps Satellite view

 

Copyright © 2004-2018 Karl L. Swartz. All rights reserved.
The Great Circle Mapper name and logo are trademarks of the Great Circle Mapper.
All other trademarks mentioned herein belong to their respective owners.
Please see credits for attibutions and further copyright information.

  Follow gcmap on Facebook Follow gcmap on Twitter Follow gcmap on Google+ GCmap on LinkedIn

hCard Microformat

Geo Microformat